createdAt,value
2019-03-12T19:16:53.168Z,7.80
2019-03-12T19:19:21.986Z,7.80
2019-03-12T19:21:51.135Z,7.70
2019-03-12T19:24:20.249Z,7.30
2019-03-12T19:26:49.054Z,7.00
2019-03-12T19:29:17.922Z,6.90
2019-03-12T19:32:27.812Z,6.80
2019-03-12T19:34:56.711Z,6.70
2019-03-12T19:37:25.671Z,6.60
2019-03-12T19:39:54.828Z,6.50
2019-03-12T19:42:23.646Z,6.30
2019-03-12T19:44:52.596Z,6.30
2019-03-12T19:47:21.485Z,6.30
2019-03-12T19:49:50.361Z,6.10
2019-03-12T19:52:19.324Z,6.10
2019-03-12T19:54:48.249Z,6.10
2019-03-12T19:57:17.296Z,6.00
2019-03-12T19:59:46.097Z,5.90
2019-03-12T20:02:16.368Z,5.90
2019-03-12T20:04:47.395Z,5.90
2019-03-12T20:07:16.185Z,5.90
2019-03-12T20:10:07.455Z,5.90
2019-03-12T20:13:05.301Z,5.80
2019-03-12T20:16:32.456Z,5.80
2019-03-12T20:19:44.508Z,5.80
2019-03-12T20:22:49.761Z,5.80
2019-03-12T20:26:05.333Z,5.80
2019-03-12T20:29:39.889Z,5.80
2019-03-12T20:32:44.596Z,5.80
2019-03-12T20:35:53.668Z,5.80
2019-03-12T20:38:58.403Z,5.80
2019-03-12T20:42:19.248Z,5.80
2019-03-12T20:45:24.885Z,5.70
2019-03-12T20:48:36.415Z,5.70
2019-03-12T20:51:33.668Z,5.70
2019-03-12T20:54:39.291Z,5.70
2019-03-12T20:57:46.877Z,5.70
2019-03-12T21:00:57.173Z,5.70
2019-03-12T21:04:09.547Z,5.70
2019-03-12T21:07:06.270Z,5.70
2019-03-12T21:10:24.213Z,5.70
2019-03-12T21:13:35.973Z,5.80
2019-03-12T21:16:30.846Z,5.80
2019-03-12T21:19:51.807Z,5.70
2019-03-12T21:22:42.901Z,5.70
2019-03-12T21:25:48.286Z,5.70
2019-03-12T21:28:58.655Z,5.80
2019-03-12T21:31:27.820Z,5.80
2019-03-12T21:33:56.622Z,5.80
2019-03-12T21:36:25.585Z,5.80
2019-03-12T21:38:54.528Z,5.80
2019-03-12T21:41:23.888Z,5.80
2019-03-12T21:43:53.371Z,5.80
2019-03-12T21:46:22.326Z,5.70
2019-03-12T21:48:51.180Z,5.70
2019-03-12T21:51:20.076Z,5.80
2019-03-12T21:53:48.975Z,5.80
2019-03-12T21:56:17.913Z,5.70
2019-03-12T21:58:46.698Z,5.80
2019-03-12T22:01:15.516Z,5.80
2019-03-12T22:03:44.837Z,5.80
2019-03-12T22:06:13.666Z,5.80
2019-03-12T22:08:42.442Z,5.80
2019-03-12T22:11:11.247Z,5.80
2019-03-12T22:13:40.203Z,5.90
2019-03-12T22:16:09.061Z,5.80
2019-03-12T22:18:37.946Z,5.90
2019-03-12T22:21:06.737Z,5.90
2019-03-12T22:23:41.611Z,5.90
2019-03-12T22:26:10.617Z,5.90
2019-03-12T22:28:42.592Z,5.90
2019-03-12T22:31:11.487Z,5.90
2019-03-12T22:33:40.525Z,6.00
2019-03-12T22:36:09.476Z,6.00
2019-03-12T22:38:38.277Z,6.00
2019-03-12T22:41:07.188Z,6.00
2019-03-12T22:43:35.998Z,6.10
2019-03-12T22:46:05.072Z,6.10
2019-03-12T22:48:33.924Z,6.20
2019-03-12T22:51:03.009Z,6.20
2019-03-12T22:53:31.897Z,6.20
2019-03-12T22:56:00.793Z,6.20
2019-03-12T22:58:29.584Z,6.20
2019-03-12T23:00:58.630Z,6.20
2019-03-12T23:03:27.420Z,6.20
2019-03-12T23:05:56.328Z,6.20
2019-03-12T23:08:25.369Z,6.20
2019-03-12T23:10:54.239Z,6.30
2019-03-12T23:13:23.240Z,6.20
2019-03-12T23:15:52.240Z,6.30
2019-03-12T23:18:21.121Z,6.30
2019-03-12T23:20:50.049Z,6.30
2019-03-12T23:23:18.896Z,6.30
2019-03-12T23:25:47.781Z,6.30
2019-03-12T23:28:16.858Z,6.30
2019-03-12T23:31:04.922Z,6.30
2019-03-12T23:33:33.744Z,6.30
2019-03-12T23:36:02.670Z,6.30
2019-03-12T23:38:31.824Z,6.30
2019-03-12T23:41:00.709Z,6.40
2019-03-12T23:43:29.570Z,6.40
2019-03-12T23:45:58.444Z,6.30
2019-03-12T23:48:27.262Z,6.40
2019-03-12T23:50:56.233Z,6.40
2019-03-12T23:53:25.146Z,6.30
2019-03-12T23:55:54.131Z,6.30
2019-03-12T23:58:26.793Z,6.30
